sensor_id;sensor_type;location;lat;lon;timestamp;P1;durP1;ratioP1;P2;durP2;ratioP2
51048;SDS011;37084;55.228;36.450;2024-03-07T00:00:13;3.38;;;1.52;;
51048;SDS011;37084;55.228;36.450;2024-03-07T00:03:16;3.13;;;1.85;;
51048;SDS011;37084;55.228;36.450;2024-03-07T00:06:18;5.78;;;1.98;;
51048;SDS011;37084;55.228;36.450;2024-03-07T00:09:22;3.40;;;1.40;;
51048;SDS011;37084;55.228;36.450;2024-03-07T00:12:25;3.47;;;2.00;;
51048;SDS011;37084;55.228;36.450;2024-03-07T00:15:28;4.25;;;2.03;;
51048;SDS011;37084;55.228;36.450;2024-03-07T00:18:31;6.80;;;2.15;;
51048;SDS011;37084;55.228;36.450;2024-03-07T00:21:32;2.33;;;1.25;;
51048;SDS011;37084;55.228;36.450;2024-03-07T00:24:33;3.35;;;1.98;;
51048;SDS011;37084;55.228;36.450;2024-03-07T00:27:35;2.70;;;1.63;;
51048;SDS011;37084;55.228;36.450;2024-03-07T00:30:37;3.95;;;2.08;;
51048;SDS011;37084;55.228;36.450;2024-03-07T00:33:38;4.28;;;1.80;;
51048;SDS011;37084;55.228;36.450;2024-03-07T00:36:40;3.22;;;1.52;;
51048;SDS011;37084;55.228;36.450;2024-03-07T00:39:42;2.67;;;1.38;;
51048;SDS011;37084;55.228;36.450;2024-03-07T00:42:44;5.40;;;1.85;;
51048;SDS011;37084;55.228;36.450;2024-03-07T00:45:45;2.50;;;1.60;;
51048;SDS011;37084;55.228;36.450;2024-03-07T00:48:50;5.05;;;1.40;;
51048;SDS011;37084;55.228;36.450;2024-03-07T00:51:52;1.55;;;1.00;;
51048;SDS011;37084;55.228;36.450;2024-03-07T00:54:53;2.08;;;1.70;;
51048;SDS011;37084;55.228;36.450;2024-03-07T00:57:54;1.40;;;1.30;;
51048;SDS011;37084;55.228;36.450;2024-03-07T01:00:55;3.13;;;1.90;;
51048;SDS011;37084;55.228;36.450;2024-03-07T01:03:57;3.25;;;1.98;;
51048;SDS011;37084;55.228;36.450;2024-03-07T01:06:59;3.30;;;1.95;;
51048;SDS011;37084;55.228;36.450;2024-03-07T01:10:01;5.10;;;2.42;;
51048;SDS011;37084;55.228;36.450;2024-03-07T01:13:04;3.03;;;1.38;;
51048;SDS011;37084;55.228;36.450;2024-03-07T01:16:08;5.10;;;1.83;;
51048;SDS011;37084;55.228;36.450;2024-03-07T01:19:10;4.45;;;2.03;;
51048;SDS011;37084;55.228;36.450;2024-03-07T01:22:11;3.45;;;1.70;;
51048;SDS011;37084;55.228;36.450;2024-03-07T01:25:12;5.38;;;1.85;;
51048;SDS011;37084;55.228;36.450;2024-03-07T01:28:14;2.58;;;1.58;;
51048;SDS011;37084;55.228;36.450;2024-03-07T01:31:15;8.82;;;2.17;;
51048;SDS011;37084;55.228;36.450;2024-03-07T01:34:17;3.40;;;1.92;;
51048;SDS011;37084;55.228;36.450;2024-03-07T01:37:18;2.05;;;1.52;;
51048;SDS011;37084;55.228;36.450;2024-03-07T01:40:19;3.75;;;1.70;;
51048;SDS011;37084;55.228;36.450;2024-03-07T01:43:21;4.43;;;1.80;;
51048;SDS011;37084;55.228;36.450;2024-03-07T01:46:23;6.63;;;2.28;;
51048;SDS011;37084;55.228;36.450;2024-03-07T01:49:25;3.55;;;1.70;;
51048;SDS011;37084;55.228;36.450;2024-03-07T01:52:26;4.40;;;2.03;;
51048;SDS011;37084;55.228;36.450;2024-03-07T01:55:28;4.47;;;1.80;;
51048;SDS011;37084;55.228;36.450;2024-03-07T01:58:29;5.68;;;2.42;;
51048;SDS011;37084;55.228;36.450;2024-03-07T02:01:34;5.50;;;1.85;;
51048;SDS011;37084;55.228;36.450;2024-03-07T02:04:37;4.53;;;1.92;;
51048;SDS011;37084;55.228;36.450;2024-03-07T02:07:38;3.10;;;1.65;;
51048;SDS011;37084;55.228;36.450;2024-03-07T02:10:41;3.50;;;2.00;;
51048;SDS011;37084;55.228;36.450;2024-03-07T02:13:43;3.90;;;1.73;;
51048;SDS011;37084;55.228;36.450;2024-03-07T02:16:45;4.40;;;1.70;;
51048;SDS011;37084;55.228;36.450;2024-03-07T02:20:06;3.55;;;1.40;;
51048;SDS011;37084;55.228;36.450;2024-03-07T02:23:09;2.33;;;1.73;;
51048;SDS011;37084;55.228;36.450;2024-03-07T02:26:10;5.78;;;2.00;;
51048;SDS011;37084;55.228;36.450;2024-03-07T02:29:12;2.25;;;2.03;;
51048;SDS011;37084;55.228;36.450;2024-03-07T02:32:13;3.75;;;2.05;;
51048;SDS011;37084;55.228;36.450;2024-03-07T02:35:15;4.25;;;1.55;;
51048;SDS011;37084;55.228;36.450;2024-03-07T02:38:17;3.90;;;2.55;;
51048;SDS011;37084;55.228;36.450;2024-03-07T02:41:20;3.17;;;2.05;;
51048;SDS011;37084;55.228;36.450;2024-03-07T02:44:21;3.00;;;2.20;;
51048;SDS011;37084;55.228;36.450;2024-03-07T02:47:23;4.68;;;2.50;;
51048;SDS011;37084;55.228;36.450;2024-03-07T02:50:24;4.70;;;1.80;;
51048;SDS011;37084;55.228;36.450;2024-03-07T02:54:08;4.93;;;2.08;;
51048;SDS011;37084;55.228;36.450;2024-03-07T02:57:10;2.63;;;1.65;;
51048;SDS011;37084;55.228;36.450;2024-03-07T03:00:13;2.17;;;1.70;;
51048;SDS011;37084;55.228;36.450;2024-03-07T03:03:20;4.40;;;2.10;;
51048;SDS011;37084;55.228;36.450;2024-03-07T03:06:21;4.05;;;2.10;;
51048;SDS011;37084;55.228;36.450;2024-03-07T03:09:22;5.82;;;2.80;;
51048;SDS011;37084;55.228;36.450;2024-03-07T03:12:24;3.65;;;2.55;;
51048;SDS011;37084;55.228;36.450;2024-03-07T03:15:26;3.42;;;2.22;;
51048;SDS011;37084;55.228;36.450;2024-03-07T03:18:28;3.50;;;2.00;;
51048;SDS011;37084;55.228;36.450;2024-03-07T03:21:29;4.63;;;2.03;;
51048;SDS011;37084;55.228;36.450;2024-03-07T03:24:31;7.63;;;2.45;;
51048;SDS011;37084;55.228;36.450;2024-03-07T03:27:32;3.05;;;2.35;;
51048;SDS011;37084;55.228;36.450;2024-03-07T03:30:33;4.78;;;2.97;;
51048;SDS011;37084;55.228;36.450;2024-03-07T03:33:35;5.28;;;2.38;;
51048;SDS011;37084;55.228;36.450;2024-03-07T03:36:36;7.93;;;2.30;;
51048;SDS011;37084;55.228;36.450;2024-03-07T03:39:37;4.38;;;2.13;;
51048;SDS011;37084;55.228;36.450;2024-03-07T03:42:39;4.22;;;2.58;;
51048;SDS011;37084;55.228;36.450;2024-03-07T03:45:42;5.13;;;2.75;;
51048;SDS011;37084;55.228;36.450;2024-03-07T03:48:43;3.83;;;1.67;;
51048;SDS011;37084;55.228;36.450;2024-03-07T03:51:44;2.60;;;1.85;;
51048;SDS011;37084;55.228;36.450;2024-03-07T03:54:46;6.88;;;2.13;;
51048;SDS011;37084;55.228;36.450;2024-03-07T03:57:49;2.95;;;1.70;;
51048;SDS011;37084;55.228;36.450;2024-03-07T04:00:50;3.05;;;1.75;;
51048;SDS011;37084;55.228;36.450;2024-03-07T04:03:52;3.95;;;2.47;;
51048;SDS011;37084;55.228;36.450;2024-03-07T04:06:54;4.40;;;2.22;;
51048;SDS011;37084;55.228;36.450;2024-03-07T04:09:55;3.47;;;2.08;;
51048;SDS011;37084;55.228;36.450;2024-03-07T04:12:57;5.50;;;2.25;;
51048;SDS011;37084;55.228;36.450;2024-03-07T04:15:59;5.53;;;2.58;;
51048;SDS011;37084;55.228;36.450;2024-03-07T04:19:01;2.92;;;2.03;;
51048;SDS011;37084;55.228;36.450;2024-03-07T04:22:02;3.67;;;2.00;;
51048;SDS011;37084;55.228;36.450;2024-03-07T04:25:07;2.85;;;1.92;;
51048;SDS011;37084;55.228;36.450;2024-03-07T04:28:10;5.95;;;2.35;;
51048;SDS011;37084;55.228;36.450;2024-03-07T04:31:12;5.10;;;2.10;;
51048;SDS011;37084;55.228;36.450;2024-03-07T04:34:14;5.45;;;2.35;;
51048;SDS011;37084;55.228;36.450;2024-03-07T04:37:16;4.53;;;2.08;;
51048;SDS011;37084;55.228;36.450;2024-03-07T04:40:17;6.32;;;2.25;;
51048;SDS011;37084;55.228;36.450;2024-03-07T04:43:19;2.70;;;1.80;;
51048;SDS011;37084;55.228;36.450;2024-03-07T04:46:21;3.40;;;1.80;;
51048;SDS011;37084;55.228;36.450;2024-03-07T04:49:23;4.07;;;2.25;;
51048;SDS011;37084;55.228;36.450;2024-03-07T04:52:25;4.57;;;2.35;;
51048;SDS011;37084;55.228;36.450;2024-03-07T04:55:26;5.13;;;2.75;;
51048;SDS011;37084;55.228;36.450;2024-03-07T04:58:28;6.03;;;1.95;;
51048;SDS011;37084;55.228;36.450;2024-03-07T05:01:29;7.05;;;3.05;;
51048;SDS011;37084;55.228;36.450;2024-03-07T05:04:32;5.18;;;2.70;;
51048;SDS011;37084;55.228;36.450;2024-03-07T05:07:33;4.18;;;1.80;;
51048;SDS011;37084;55.228;36.450;2024-03-07T05:10:36;4.50;;;2.15;;
51048;SDS011;37084;55.228;36.450;2024-03-07T05:13:38;6.03;;;2.55;;
51048;SDS011;37084;55.228;36.450;2024-03-07T05:16:40;4.72;;;3.00;;
51048;SDS011;37084;55.228;36.450;2024-03-07T05:19:44;8.50;;;2.65;;
51048;SDS011;37084;55.228;36.450;2024-03-07T05:22:46;10.27;;;3.58;;
51048;SDS011;37084;55.228;36.450;2024-03-07T05:25:53;4.93;;;2.13;;
51048;SDS011;37084;55.228;36.450;2024-03-07T05:28:55;5.65;;;2.10;;
51048;SDS011;37084;55.228;36.450;2024-03-07T05:32:17;9.07;;;3.35;;
51048;SDS011;37084;55.228;36.450;2024-03-07T05:35:27;7.35;;;2.65;;
51048;SDS011;37084;55.228;36.450;2024-03-07T05:38:30;7.65;;;2.97;;
51048;SDS011;37084;55.228;36.450;2024-03-07T05:41:32;3.80;;;2.63;;
51048;SDS011;37084;55.228;36.450;2024-03-07T05:44:33;6.75;;;3.05;;
51048;SDS011;37084;55.228;36.450;2024-03-07T05:47:34;4.18;;;2.45;;
51048;SDS011;37084;55.228;36.450;2024-03-07T05:50:36;5.05;;;2.15;;
51048;SDS011;37084;55.228;36.450;2024-03-07T05:53:37;4.43;;;2.90;;
51048;SDS011;37084;55.228;36.450;2024-03-07T05:56:39;6.57;;;3.05;;
51048;SDS011;37084;55.228;36.450;2024-03-07T05:59:41;5.03;;;2.22;;
51048;SDS011;37084;55.228;36.450;2024-03-07T06:02:43;4.50;;;2.65;;
51048;SDS011;37084;55.228;36.450;2024-03-07T06:05:44;5.63;;;2.90;;
51048;SDS011;37084;55.228;36.450;2024-03-07T06:08:49;3.65;;;1.60;;
51048;SDS011;37084;55.228;36.450;2024-03-07T06:11:50;3.40;;;2.38;;
51048;SDS011;37084;55.228;36.450;2024-03-07T06:14:52;4.13;;;2.20;;
51048;SDS011;37084;55.228;36.450;2024-03-07T06:17:53;2.20;;;1.85;;
51048;SDS011;37084;55.228;36.450;2024-03-07T06:20:54;5.93;;;1.95;;
51048;SDS011;37084;55.228;36.450;2024-03-07T06:23:56;7.45;;;3.20;;
51048;SDS011;37084;55.228;36.450;2024-03-07T06:27:01;4.18;;;2.33;;
51048;SDS011;37084;55.228;36.450;2024-03-07T06:30:04;4.10;;;2.45;;
51048;SDS011;37084;55.228;36.450;2024-03-07T06:33:10;5.97;;;2.75;;
51048;SDS011;37084;55.228;36.450;2024-03-07T06:36:11;5.18;;;2.42;;
51048;SDS011;37084;55.228;36.450;2024-03-07T06:39:12;4.15;;;2.47;;
51048;SDS011;37084;55.228;36.450;2024-03-07T06:42:14;4.25;;;2.58;;
51048;SDS011;37084;55.228;36.450;2024-03-07T06:45:15;6.85;;;2.40;;
51048;SDS011;37084;55.228;36.450;2024-03-07T06:48:17;4.13;;;2.47;;
51048;SDS011;37084;55.228;36.450;2024-03-07T06:51:18;6.65;;;2.63;;
51048;SDS011;37084;55.228;36.450;2024-03-07T06:54:19;3.70;;;2.17;;
51048;SDS011;37084;55.228;36.450;2024-03-07T06:57:22;7.50;;;2.97;;
51048;SDS011;37084;55.228;36.450;2024-03-07T07:00:23;3.10;;;2.10;;
51048;SDS011;37084;55.228;36.450;2024-03-07T07:03:24;3.58;;;2.88;;
51048;SDS011;37084;55.228;36.450;2024-03-07T07:06:26;5.60;;;2.13;;
51048;SDS011;37084;55.228;36.450;2024-03-07T07:09:28;4.18;;;2.20;;
51048;SDS011;37084;55.228;36.450;2024-03-07T07:12:29;4.15;;;2.15;;
51048;SDS011;37084;55.228;36.450;2024-03-07T07:15:31;4.18;;;2.33;;
51048;SDS011;37084;55.228;36.450;2024-03-07T07:18:32;9.13;;;3.17;;
51048;SDS011;37084;55.228;36.450;2024-03-07T07:21:33;3.70;;;2.15;;
51048;SDS011;37084;55.228;36.450;2024-03-07T07:24:35;4.35;;;2.10;;
51048;SDS011;37084;55.228;36.450;2024-03-07T07:27:46;3.67;;;2.47;;
51048;SDS011;37084;55.228;36.450;2024-03-07T07:30:51;4.13;;;2.22;;
51048;SDS011;37084;55.228;36.450;2024-03-07T07:33:53;2.65;;;1.92;;
51048;SDS011;37084;55.228;36.450;2024-03-07T07:36:54;4.05;;;2.45;;
51048;SDS011;37084;55.228;36.450;2024-03-07T07:39:56;2.50;;;1.92;;
51048;SDS011;37084;55.228;36.450;2024-03-07T07:42:57;4.32;;;2.00;;
51048;SDS011;37084;55.228;36.450;2024-03-07T07:45:58;3.53;;;2.22;;
51048;SDS011;37084;55.228;36.450;2024-03-07T07:49:00;4.22;;;1.98;;
51048;SDS011;37084;55.228;36.450;2024-03-07T07:52:03;3.63;;;2.10;;
51048;SDS011;37084;55.228;36.450;2024-03-07T07:55:05;3.30;;;2.08;;
51048;SDS011;37084;55.228;36.450;2024-03-07T07:58:06;3.47;;;2.38;;
51048;SDS011;37084;55.228;36.450;2024-03-07T08:01:08;3.65;;;2.35;;
51048;SDS011;37084;55.228;36.450;2024-03-07T08:04:10;4.38;;;2.00;;
51048;SDS011;37084;55.228;36.450;2024-03-07T08:07:11;3.03;;;2.70;;
51048;SDS011;37084;55.228;36.450;2024-03-07T08:10:13;3.42;;;2.40;;
51048;SDS011;37084;55.228;36.450;2024-03-07T08:13:16;3.83;;;1.90;;
51048;SDS011;37084;55.228;36.450;2024-03-07T08:16:17;4.07;;;1.92;;
51048;SDS011;37084;55.228;36.450;2024-03-07T08:19:18;2.92;;;2.20;;
51048;SDS011;37084;55.228;36.450;2024-03-07T08:22:20;3.13;;;2.30;;
51048;SDS011;37084;55.228;36.450;2024-03-07T08:25:25;4.65;;;2.50;;
51048;SDS011;37084;55.228;36.450;2024-03-07T08:28:28;4.20;;;2.03;;
51048;SDS011;37084;55.228;36.450;2024-03-07T08:31:29;4.90;;;1.88;;
51048;SDS011;37084;55.228;36.450;2024-03-07T08:34:30;3.80;;;1.92;;
51048;SDS011;37084;55.228;36.450;2024-03-07T08:37:32;2.38;;;1.70;;
51048;SDS011;37084;55.228;36.450;2024-03-07T08:40:34;3.03;;;1.92;;
51048;SDS011;37084;55.228;36.450;2024-03-07T08:43:36;3.50;;;1.75;;
51048;SDS011;37084;55.228;36.450;2024-03-07T08:46:37;3.08;;;1.90;;
51048;SDS011;37084;55.228;36.450;2024-03-07T08:49:39;3.72;;;2.08;;
51048;SDS011;37084;55.228;36.450;2024-03-07T08:52:40;2.97;;;1.40;;
51048;SDS011;37084;55.228;36.450;2024-03-07T08:55:41;3.17;;;1.60;;
51048;SDS011;37084;55.228;36.450;2024-03-07T08:58:43;3.88;;;1.77;;
51048;SDS011;37084;55.228;36.450;2024-03-07T09:01:45;5.25;;;2.28;;
51048;SDS011;37084;55.228;36.450;2024-03-07T09:04:46;3.72;;;1.88;;
51048;SDS011;37084;55.228;36.450;2024-03-07T09:07:48;4.75;;;2.15;;
51048;SDS011;37084;55.228;36.450;2024-03-07T09:10:50;2.25;;;1.63;;
51048;SDS011;37084;55.228;36.450;2024-03-07T09:13:56;2.92;;;2.00;;
51048;SDS011;37084;55.228;36.450;2024-03-07T09:16:57;4.38;;;2.05;;
51048;SDS011;37084;55.228;36.450;2024-03-07T09:19:58;3.50;;;1.83;;
51048;SDS011;37084;55.228;36.450;2024-03-07T09:22:59;2.40;;;1.52;;
51048;SDS011;37084;55.228;36.450;2024-03-07T09:26:01;6.15;;;2.00;;
51048;SDS011;37084;55.228;36.450;2024-03-07T09:29:03;2.58;;;1.92;;
51048;SDS011;37084;55.228;36.450;2024-03-07T09:32:06;2.38;;;1.50;;
51048;SDS011;37084;55.228;36.450;2024-03-07T09:35:11;2.00;;;1.73;;
51048;SDS011;37084;55.228;36.450;2024-03-07T09:38:15;2.05;;;1.30;;
51048;SDS011;37084;55.228;36.450;2024-03-07T09:41:16;2.45;;;1.80;;
51048;SDS011;37084;55.228;36.450;2024-03-07T09:44:18;4.72;;;1.48;;
51048;SDS011;37084;55.228;36.450;2024-03-07T09:47:24;2.95;;;1.77;;
51048;SDS011;37084;55.228;36.450;2024-03-07T09:50:26;1.77;;;1.30;;
51048;SDS011;37084;55.228;36.450;2024-03-07T09:53:28;2.40;;;1.30;;
51048;SDS011;37084;55.228;36.450;2024-03-07T09:56:31;1.48;;;1.38;;
51048;SDS011;37084;55.228;36.450;2024-03-07T09:59:35;5.20;;;1.42;;
51048;SDS011;37084;55.228;36.450;2024-03-07T10:02:39;2.33;;;1.60;;
51048;SDS011;37084;55.228;36.450;2024-03-07T10:05:41;1.80;;;1.35;;
51048;SDS011;37084;55.228;36.450;2024-03-07T10:08:43;1.83;;;1.20;;
51048;SDS011;37084;55.228;36.450;2024-03-07T10:11:44;1.95;;;1.83;;
51048;SDS011;37084;55.228;36.450;2024-03-07T10:14:49;2.28;;;1.23;;
51048;SDS011;37084;55.228;36.450;2024-03-07T10:17:51;1.70;;;1.52;;
51048;SDS011;37084;55.228;36.450;2024-03-07T10:20:56;1.70;;;1.15;;
51048;SDS011;37084;55.228;36.450;2024-03-07T10:24:04;1.58;;;1.48;;
51048;SDS011;37084;55.228;36.450;2024-03-07T10:27:08;1.80;;;1.63;;
51048;SDS011;37084;55.228;36.450;2024-03-07T10:30:09;2.13;;;1.42;;
51048;SDS011;37084;55.228;36.450;2024-03-07T10:33:11;1.80;;;0.90;;
51048;SDS011;37084;55.228;36.450;2024-03-07T10:36:14;1.88;;;1.33;;
51048;SDS011;37084;55.228;36.450;2024-03-07T10:39:15;4.05;;;1.65;;
51048;SDS011;37084;55.228;36.450;2024-03-07T10:42:17;1.45;;;1.17;;
51048;SDS011;37084;55.228;36.450;2024-03-07T10:45:22;1.88;;;1.58;;
51048;SDS011;37084;55.228;36.450;2024-03-07T10:48:25;1.50;;;1.40;;
51048;SDS011;37084;55.228;36.450;2024-03-07T10:51:37;1.33;;;1.10;;
51048;SDS011;37084;55.228;36.450;2024-03-07T10:55:00;1.50;;;1.23;;
51048;SDS011;37084;55.228;36.450;2024-03-07T10:58:15;1.35;;;1.00;;
51048;SDS011;37084;55.228;36.450;2024-03-07T11:05:01;2.13;;;1.20;;
51048;SDS011;37084;55.228;36.450;2024-03-07T11:08:08;1.67;;;1.20;;
51048;SDS011;37084;55.228;36.450;2024-03-07T11:11:14;1.85;;;1.35;;
51048;SDS011;37084;55.228;36.450;2024-03-07T11:14:15;2.08;;;1.20;;
51048;SDS011;37084;55.228;36.450;2024-03-07T11:17:17;1.55;;;1.35;;
51048;SDS011;37084;55.228;36.450;2024-03-07T11:20:21;3.05;;;1.17;;
51048;SDS011;37084;55.228;36.450;2024-03-07T11:26:31;2.55;;;1.60;;
51048;SDS011;37084;55.228;36.450;2024-03-07T11:29:40;2.03;;;1.08;;
51048;SDS011;37084;55.228;36.450;2024-03-07T11:32:48;2.05;;;1.20;;
51048;SDS011;37084;55.228;36.450;2024-03-07T11:35:54;2.75;;;1.20;;
51048;SDS011;37084;55.228;36.450;2024-03-07T11:38:55;3.13;;;1.40;;
51048;SDS011;37084;55.228;36.450;2024-03-07T11:41:56;1.75;;;1.45;;
51048;SDS011;37084;55.228;36.450;2024-03-07T11:44:58;1.35;;;1.13;;
51048;SDS011;37084;55.228;36.450;2024-03-07T11:48:00;2.47;;;1.70;;
51048;SDS011;37084;55.228;36.450;2024-03-07T11:51:07;1.98;;;0.93;;
51048;SDS011;37084;55.228;36.450;2024-03-07T11:54:11;1.98;;;1.13;;
51048;SDS011;37084;55.228;36.450;2024-03-07T11:57:15;1.55;;;1.20;;
51048;SDS011;37084;55.228;36.450;2024-03-07T12:00:20;2.58;;;1.25;;
51048;SDS011;37084;55.228;36.450;2024-03-07T12:03:24;1.65;;;1.05;;
51048;SDS011;37084;55.228;36.450;2024-03-07T12:06:27;1.85;;;1.00;;
51048;SDS011;37084;55.228;36.450;2024-03-07T12:09:30;1.35;;;1.25;;
51048;SDS011;37084;55.228;36.450;2024-03-07T12:12:31;2.38;;;1.10;;
51048;SDS011;37084;55.228;36.450;2024-03-07T12:15:33;1.60;;;1.33;;
51048;SDS011;37084;55.228;36.450;2024-03-07T12:18:37;1.33;;;1.17;;
51048;SDS011;37084;55.228;36.450;2024-03-07T12:21:39;1.98;;;1.17;;
51048;SDS011;37084;55.228;36.450;2024-03-07T12:24:41;2.33;;;0.95;;
51048;SDS011;37084;55.228;36.450;2024-03-07T12:27:43;2.30;;;1.40;;
51048;SDS011;37084;55.228;36.450;2024-03-07T12:30:48;1.35;;;0.95;;
51048;SDS011;37084;55.228;36.450;2024-03-07T12:33:51;1.60;;;1.10;;
51048;SDS011;37084;55.228;36.450;2024-03-07T12:36:52;1.88;;;1.30;;
51048;SDS011;37084;55.228;36.450;2024-03-07T12:39:56;1.05;;;0.98;;
51048;SDS011;37084;55.228;36.450;2024-03-07T12:43:21;1.52;;;1.30;;
51048;SDS011;37084;55.228;36.450;2024-03-07T12:46:22;2.05;;;1.25;;
51048;SDS011;37084;55.228;36.450;2024-03-07T12:49:24;1.90;;;1.10;;
51048;SDS011;37084;55.228;36.450;2024-03-07T12:52:28;1.88;;;1.10;;
51048;SDS011;37084;55.228;36.450;2024-03-07T12:55:30;1.35;;;0.98;;
51048;SDS011;37084;55.228;36.450;2024-03-07T12:58:31;1.30;;;1.08;;
51048;SDS011;37084;55.228;36.450;2024-03-07T13:01:33;0.90;;;0.85;;
51048;SDS011;37084;55.228;36.450;2024-03-07T13:04:35;1.95;;;1.38;;
51048;SDS011;37084;55.228;36.450;2024-03-07T13:07:40;1.60;;;0.90;;
51048;SDS011;37084;55.228;36.450;2024-03-07T13:10:41;1.17;;;0.80;;
51048;SDS011;37084;55.228;36.450;2024-03-07T13:13:43;0.93;;;0.77;;
51048;SDS011;37084;55.228;36.450;2024-03-07T13:16:45;2.75;;;0.90;;
51048;SDS011;37084;55.228;36.450;2024-03-07T13:19:46;1.38;;;0.75;;
51048;SDS011;37084;55.228;36.450;2024-03-07T13:22:50;1.63;;;1.23;;
51048;SDS011;37084;55.228;36.450;2024-03-07T13:25:52;3.33;;;1.05;;
51048;SDS011;37084;55.228;36.450;2024-03-07T13:28:53;1.10;;;0.98;;
51048;SDS011;37084;55.228;36.450;2024-03-07T13:31:55;1.83;;;0.85;;
51048;SDS011;37084;55.228;36.450;2024-03-07T13:34:57;1.77;;;1.08;;
51048;SDS011;37084;55.228;36.450;2024-03-07T13:38:03;1.17;;;0.68;;
51048;SDS011;37084;55.228;36.450;2024-03-07T13:41:05;1.88;;;1.17;;
51048;SDS011;37084;55.228;36.450;2024-03-07T13:44:06;1.55;;;1.27;;
51048;SDS011;37084;55.228;36.450;2024-03-07T13:47:08;1.45;;;0.93;;
51048;SDS011;37084;55.228;36.450;2024-03-07T13:50:09;2.17;;;1.25;;
51048;SDS011;37084;55.228;36.450;2024-03-07T13:53:12;2.50;;;1.17;;
51048;SDS011;37084;55.228;36.450;2024-03-07T13:59:50;2.78;;;1.60;;
51048;SDS011;37084;55.228;36.450;2024-03-07T14:06:30;2.55;;;1.42;;
51048;SDS011;37084;55.228;36.450;2024-03-07T14:20:35;1.83;;;1.33;;
51048;SDS011;37084;55.228;36.450;2024-03-07T14:27:34;1.15;;;1.05;;
51048;SDS011;37084;55.228;36.450;2024-03-07T14:30:41;2.75;;;1.05;;
51048;SDS011;37084;55.228;36.450;2024-03-07T14:33:48;1.25;;;1.15;;
51048;SDS011;37084;55.228;36.450;2024-03-07T14:37:23;1.02;;;1.00;;
51048;SDS011;37084;55.228;36.450;2024-03-07T14:40:30;1.40;;;1.30;;
51048;SDS011;37084;55.228;36.450;2024-03-07T14:43:31;1.95;;;1.33;;
51048;SDS011;37084;55.228;36.450;2024-03-07T14:46:33;2.85;;;1.67;;
51048;SDS011;37084;55.228;36.450;2024-03-07T14:49:36;2.08;;;1.17;;
51048;SDS011;37084;55.228;36.450;2024-03-07T14:52:38;1.42;;;1.30;;
51048;SDS011;37084;55.228;36.450;2024-03-07T14:55:41;1.02;;;0.93;;
51048;SDS011;37084;55.228;36.450;2024-03-07T14:58:42;1.25;;;0.93;;
51048;SDS011;37084;55.228;36.450;2024-03-07T15:01:44;3.40;;;1.30;;
51048;SDS011;37084;55.228;36.450;2024-03-07T15:04:45;1.05;;;0.80;;
51048;SDS011;37084;55.228;36.450;2024-03-07T15:07:47;1.55;;;0.93;;
51048;SDS011;37084;55.228;36.450;2024-03-07T15:10:50;1.73;;;1.05;;
51048;SDS011;37084;55.228;36.450;2024-03-07T15:13:55;2.08;;;1.15;;
51048;SDS011;37084;55.228;36.450;2024-03-07T15:16:57;1.48;;;1.00;;
51048;SDS011;37084;55.228;36.450;2024-03-07T15:19:58;2.05;;;1.85;;
51048;SDS011;37084;55.228;36.450;2024-03-07T15:23:00;1.33;;;1.20;;
51048;SDS011;37084;55.228;36.450;2024-03-07T15:26:03;2.38;;;1.65;;
51048;SDS011;37084;55.228;36.450;2024-03-07T15:29:05;2.03;;;1.33;;
51048;SDS011;37084;55.228;36.450;2024-03-07T15:32:07;2.08;;;1.33;;
51048;SDS011;37084;55.228;36.450;2024-03-07T15:35:09;2.53;;;1.27;;
51048;SDS011;37084;55.228;36.450;2024-03-07T15:38:17;2.65;;;1.35;;
51048;SDS011;37084;55.228;36.450;2024-03-07T15:41:19;2.45;;;1.15;;
51048;SDS011;37084;55.228;36.450;2024-03-07T15:44:22;2.13;;;1.35;;
51048;SDS011;37084;55.228;36.450;2024-03-07T15:47:26;2.45;;;1.23;;
51048;SDS011;37084;55.228;36.450;2024-03-07T15:50:27;3.25;;;1.77;;
51048;SDS011;37084;55.228;36.450;2024-03-07T15:53:32;3.10;;;1.63;;
51048;SDS011;37084;55.228;36.450;2024-03-07T15:56:35;2.03;;;1.80;;
51048;SDS011;37084;55.228;36.450;2024-03-07T15:59:41;1.45;;;1.25;;
51048;SDS011;37084;55.228;36.450;2024-03-07T16:02:43;2.45;;;1.60;;
51048;SDS011;37084;55.228;36.450;2024-03-07T16:05:45;2.25;;;1.92;;
51048;SDS011;37084;55.228;36.450;2024-03-07T16:08:46;1.98;;;1.27;;
51048;SDS011;37084;55.228;36.450;2024-03-07T16:11:47;3.25;;;1.30;;
51048;SDS011;37084;55.228;36.450;2024-03-07T16:14:50;6.85;;;2.55;;
51048;SDS011;37084;55.228;36.450;2024-03-07T16:17:54;4.28;;;2.08;;
51048;SDS011;37084;55.228;36.450;2024-03-07T16:20:59;2.65;;;1.83;;
51048;SDS011;37084;55.228;36.450;2024-03-07T16:24:00;4.30;;;1.83;;
51048;SDS011;37084;55.228;36.450;2024-03-07T16:27:01;3.17;;;1.58;;
51048;SDS011;37084;55.228;36.450;2024-03-07T16:30:05;2.75;;;1.67;;
51048;SDS011;37084;55.228;36.450;2024-03-07T16:33:07;3.33;;;1.52;;
51048;SDS011;37084;55.228;36.450;2024-03-07T16:36:08;2.67;;;1.70;;
51048;SDS011;37084;55.228;36.450;2024-03-07T16:39:10;2.63;;;1.52;;
51048;SDS011;37084;55.228;36.450;2024-03-07T16:42:12;3.55;;;2.00;;
51048;SDS011;37084;55.228;36.450;2024-03-07T16:45:15;5.03;;;1.60;;
51048;SDS011;37084;55.228;36.450;2024-03-07T16:48:18;3.55;;;1.35;;
51048;SDS011;37084;55.228;36.450;2024-03-07T16:51:20;3.38;;;1.20;;
51048;SDS011;37084;55.228;36.450;2024-03-07T16:54:21;3.38;;;1.40;;
51048;SDS011;37084;55.228;36.450;2024-03-07T16:57:22;3.15;;;1.10;;
51048;SDS011;37084;55.228;36.450;2024-03-07T17:00:25;3.45;;;1.20;;
51048;SDS011;37084;55.228;36.450;2024-03-07T17:03:30;1.98;;;1.02;;
51048;SDS011;37084;55.228;36.450;2024-03-07T17:06:31;1.13;;;0.77;;
51048;SDS011;37084;55.228;36.450;2024-03-07T17:09:36;3.53;;;1.50;;
51048;SDS011;37084;55.228;36.450;2024-03-07T17:12:37;10.55;;;3.72;;
51048;SDS011;37084;55.228;36.450;2024-03-07T17:15:38;6.82;;;2.75;;
51048;SDS011;37084;55.228;36.450;2024-03-07T17:18:40;3.67;;;2.20;;
51048;SDS011;37084;55.228;36.450;2024-03-07T17:21:41;6.50;;;2.22;;
51048;SDS011;37084;55.228;36.450;2024-03-07T17:24:43;3.08;;;1.30;;
51048;SDS011;37084;55.228;36.450;2024-03-07T17:27:45;3.00;;;1.65;;
51048;SDS011;37084;55.228;36.450;2024-03-07T17:30:52;2.90;;;1.30;;
51048;SDS011;37084;55.228;36.450;2024-03-07T17:33:56;3.30;;;1.83;;
51048;SDS011;37084;55.228;36.450;2024-03-07T17:36:57;2.85;;;1.20;;
51048;SDS011;37084;55.228;36.450;2024-03-07T17:39:59;2.50;;;1.10;;
51048;SDS011;37084;55.228;36.450;2024-03-07T17:43:01;3.20;;;1.35;;
51048;SDS011;37084;55.228;36.450;2024-03-07T17:46:05;4.57;;;1.85;;
51048;SDS011;37084;55.228;36.450;2024-03-07T17:49:07;4.72;;;1.88;;
51048;SDS011;37084;55.228;36.450;2024-03-07T17:52:11;5.57;;;1.52;;
51048;SDS011;37084;55.228;36.450;2024-03-07T17:55:16;3.88;;;2.28;;
51048;SDS011;37084;55.228;36.450;2024-03-07T17:58:18;3.20;;;1.95;;
51048;SDS011;37084;55.228;36.450;2024-03-07T18:01:20;3.35;;;1.60;;
51048;SDS011;37084;55.228;36.450;2024-03-07T18:04:21;2.75;;;1.85;;
51048;SDS011;37084;55.228;36.450;2024-03-07T18:07:25;4.13;;;2.00;;
51048;SDS011;37084;55.228;36.450;2024-03-07T18:10:26;3.15;;;1.60;;
51048;SDS011;37084;55.228;36.450;2024-03-07T18:13:31;4.80;;;1.88;;
51048;SDS011;37084;55.228;36.450;2024-03-07T18:16:33;5.18;;;1.98;;
51048;SDS011;37084;55.228;36.450;2024-03-07T18:19:35;5.00;;;2.97;;
51048;SDS011;37084;55.228;36.450;2024-03-07T18:22:36;5.20;;;2.53;;
51048;SDS011;37084;55.228;36.450;2024-03-07T18:25:38;6.10;;;2.92;;
51048;SDS011;37084;55.228;36.450;2024-03-07T18:28:39;7.05;;;2.65;;
51048;SDS011;37084;55.228;36.450;2024-03-07T18:31:40;7.15;;;2.22;;